createdAt,value
2023-01-02T00:01:18.601Z,12.13
2023-01-02T00:03:47.244Z,12.42
2023-01-02T00:06:17.751Z,12.35
2023-01-02T00:08:46.256Z,12.42
2023-01-02T00:11:14.731Z,12.66
2023-01-02T00:13:43.588Z,12.69
2023-01-02T00:16:12.075Z,12.75
2023-01-02T00:18:42.001Z,12.90
2023-01-02T00:21:10.648Z,12.87
2023-01-02T00:23:39.252Z,12.81
2023-01-02T00:26:08.089Z,12.78
2023-01-02T00:28:37.666Z,12.68
2023-01-02T00:31:09.495Z,12.77
2023-01-02T00:33:38.648Z,12.81
2023-01-02T00:36:10.591Z,12.74
2023-01-02T00:38:39.745Z,12.72
2023-01-02T00:41:08.583Z,12.69
2023-01-02T00:43:37.187Z,12.74
2023-01-02T00:46:11.661Z,12.61
2023-01-02T00:48:41.070Z,12.58
2023-01-02T00:51:10.867Z,12.62
2023-01-02T00:53:39.506Z,12.50
2023-01-02T00:56:08.554Z,12.51
2023-01-02T00:58:37.129Z,12.50
2023-01-02T01:01:05.998Z,12.52
2023-01-02T01:03:34.621Z,12.50
2023-01-02T01:06:08.423Z,12.55
2023-01-02T01:08:39.612Z,12.55
2023-01-02T01:11:08.630Z,12.46
2023-01-02T01:13:37.436Z,12.40
2023-01-02T01:16:07.303Z,12.30
2023-01-02T01:18:35.955Z,12.19
2023-01-02T01:21:08.160Z,12.13
2023-01-02T01:23:38.450Z,12.15
2023-01-02T01:26:08.651Z,12.14
2023-01-02T01:28:37.461Z,12.11
2023-01-02T01:31:08.518Z,12.06
2023-01-02T01:33:38.125Z,12.02
2023-01-02T01:36:10.044Z,12.07
2023-01-02T01:38:41.286Z,12.13
2023-01-02T01:41:11.446Z,12.00
2023-01-02T01:43:43.219Z,11.95
2023-01-02T01:46:21.308Z,12.02
2023-01-02T01:48:55.845Z,11.96
2023-01-02T01:51:26.806Z,11.92
2023-01-02T01:54:05.640Z,11.89
2023-01-02T01:56:36.844Z,11.88
2023-01-02T01:59:06.406Z,11.91
2023-01-02T02:01:35.581Z,11.88
2023-01-02T02:04:05.133Z,11.73
2023-01-02T02:07:25.942Z,11.60
2023-01-02T02:21:01.028Z,11.32
2023-01-02T02:24:05.248Z,11.23
2023-01-02T02:27:15.643Z,11.16
2023-01-02T02:30:09.499Z,11.15
2023-01-02T02:33:03.051Z,11.08
2023-01-02T02:35:44.148Z,11.11
2023-01-02T02:38:20.422Z,11.19
2023-01-02T02:41:08.934Z,10.98
2023-01-02T02:44:03.758Z,11.05
2023-01-02T02:46:43.442Z,11.10
2023-01-02T02:49:21.630Z,11.07
2023-01-02T02:51:59.644Z,11.18
2023-01-02T02:54:45.225Z,11.16
2023-01-02T02:57:16.654Z,10.98
2023-01-02T02:59:45.648Z,11.08
2023-01-02T03:02:17.567Z,11.02
2023-01-02T03:04:49.442Z,11.11
2023-01-02T03:07:26.389Z,11.13
2023-01-02T03:10:13.624Z,11.16
2023-01-02T03:12:51.587Z,10.98
2023-01-02T03:15:27.193Z,10.99
2023-01-02T03:18:04.391Z,10.82
2023-01-02T03:20:39.142Z,10.65
2023-01-02T03:23:13.978Z,10.56
2023-01-02T03:25:44.339Z,10.62
2023-01-02T03:28:15.997Z,10.57
2023-01-02T03:30:46.539Z,10.66
2023-01-02T03:33:19.885Z,10.68
2023-01-02T03:35:54.383Z,10.54
2023-01-02T03:38:27.460Z,10.54
2023-01-02T03:41:03.980Z,10.43
2023-01-02T03:43:36.642Z,10.43
2023-01-02T03:46:11.759Z,10.52
2023-01-02T03:48:47.197Z,10.50
2023-01-02T03:51:15.826Z,10.40
2023-01-02T03:53:45.528Z,10.38
2023-01-02T03:56:23.424Z,10.33
2023-01-02T03:58:57.991Z,10.29
2023-01-02T04:01:35.711Z,10.30
2023-01-02T04:04:12.546Z,10.31
2023-01-02T04:06:47.969Z,10.33
2023-01-02T04:09:20.757Z,10.43
2023-01-02T04:11:53.379Z,10.39
2023-01-02T04:14:30.579Z,10.31
2023-01-02T04:17:02.579Z,10.31
2023-01-02T04:19:36.390Z,10.39
2023-01-02T04:22:09.083Z,10.54
2023-01-02T04:24:43.581Z,10.56
2023-01-02T04:27:15.762Z,10.48
2023-01-02T04:29:44.403Z,10.51
2023-01-02T04:32:19.414Z,10.55
2023-01-02T04:34:51.025Z,10.47
2023-01-02T04:37:31.072Z,10.51
2023-01-02T04:40:03.807Z,10.37
2023-01-02T04:42:32.440Z,10.48
2023-01-02T04:45:01.006Z,10.43
2023-01-02T04:47:29.527Z,10.34
2023-01-02T04:49:59.483Z,10.33
2023-01-02T04:52:35.084Z,10.28
2023-01-02T04:55:08.322Z,10.33
2023-01-02T04:57:37.348Z,10.26
2023-01-02T05:00:08.244Z,10.22
2023-01-02T05:02:37.483Z,10.15
2023-01-02T05:05:09.709Z,10.13
2023-01-02T05:07:38.984Z,10.10
2023-01-02T05:10:10.260Z,10.14
2023-01-02T05:12:41.717Z,10.08
2023-01-02T05:15:11.457Z,10.07
2023-01-02T05:17:41.823Z,10.07
2023-01-02T05:20:13.793Z,10.06
2023-01-02T05:23:12.920Z,10.07
2023-01-02T05:25:41.548Z,9.98
2023-01-02T05:28:10.075Z,10.02
2023-01-02T05:30:39.686Z,9.96
2023-01-02T05:33:08.142Z,9.99
2023-01-02T05:35:37.905Z,9.90
2023-01-02T05:38:06.479Z,9.89
2023-01-02T05:40:34.957Z,9.88
2023-01-02T05:43:03.337Z,9.93
2023-01-02T05:45:31.879Z,9.88
2023-01-02T05:48:00.309Z,9.86
2023-01-02T05:50:28.771Z,9.84
2023-01-02T05:52:58.930Z,9.84
2023-01-02T05:55:27.314Z,9.81
2023-01-02T05:57:58.451Z,9.81
2023-01-02T06:00:26.888Z,9.83
2023-01-02T06:02:55.541Z,9.84
2023-01-02T06:05:24.127Z,9.80
2023-01-02T06:07:52.593Z,9.77
2023-01-02T06:10:22.826Z,9.78
2023-01-02T06:12:51.187Z,9.74
2023-01-02T06:15:19.564Z,9.72
2023-01-02T06:17:49.388Z,9.76
2023-01-02T06:20:18.122Z,9.76
2023-01-02T06:22:46.636Z,9.71
2023-01-02T06:25:15.298Z,9.72
2023-01-02T06:27:45.127Z,9.66
2023-01-02T06:30:13.839Z,9.64
2023-01-02T06:32:42.278Z,9.65
2023-01-02T06:35:10.937Z,9.64
2023-01-02T06:37:43.664Z,9.67
2023-01-02T06:40:12.482Z,9.64
2023-01-02T06:42:40.949Z,9.60
2023-01-02T06:45:12.187Z,9.59
2023-01-02T06:47:40.615Z,9.55
2023-01-02T06:50:10.584Z,9.54
2023-01-02T06:52:38.934Z,9.53
2023-01-02T06:55:08.064Z,9.51
2023-01-02T06:57:36.439Z,9.51
2023-01-02T07:00:05.391Z,9.52
2023-01-02T07:02:36.591Z,9.51
2023-01-02T07:05:08.009Z,9.53
2023-01-02T07:08:00.390Z,9.52
2023-01-02T07:10:54.704Z,9.51
2023-01-02T07:13:27.176Z,9.51
2023-01-02T07:15:58.288Z,9.46
2023-01-02T07:20:03.483Z,9.45
2023-01-02T07:30:42.427Z,9.42
2023-01-02T07:33:38.409Z,9.41
2023-01-02T07:36:22.861Z,9.44
2023-01-02T07:38:52.575Z,9.45
2023-01-02T07:41:23.659Z,9.44
2023-01-02T07:44:19.651Z,9.41
2023-01-02T07:46:51.044Z,9.37
2023-01-02T07:49:23.748Z,9.33
2023-01-02T07:51:52.280Z,9.40
2023-01-02T07:54:20.986Z,9.43
2023-01-02T07:56:49.489Z,9.34
2023-01-02T07:59:18.360Z,9.33
2023-01-02T08:01:46.997Z,9.38
2023-01-02T08:04:15.972Z,9.32
2023-01-02T08:06:46.061Z,9.31
2023-01-02T08:09:14.707Z,9.33
2023-01-02T08:11:43.515Z,9.38
2023-01-02T08:14:11.996Z,9.38
2023-01-02T08:16:40.517Z,9.32
2023-01-02T08:19:09.085Z,9.37
2023-01-02T08:21:37.834Z,9.32
2023-01-02T08:24:08.480Z,9.31
2023-01-02T08:26:36.993Z,9.30
2023-01-02T08:29:05.439Z,9.28
2023-01-02T08:31:36.597Z,9.31
2023-01-02T08:34:07.388Z,9.32
2023-01-02T08:36:35.875Z,9.25
2023-01-02T08:39:10.633Z,9.24
2023-01-02T08:41:42.146Z,9.26
2023-01-02T08:44:10.671Z,9.21
2023-01-02T08:46:42.892Z,9.18
2023-01-02T08:49:17.952Z,9.16
2023-01-02T08:51:46.525Z,9.12
2023-01-02T08:54:15.059Z,9.02
2023-01-02T08:56:44.830Z,9.01
2023-01-02T08:59:31.760Z,9.10
2023-01-02T09:02:00.860Z,9.10
2023-01-02T09:04:29.773Z,9.10
2023-01-02T09:06:58.871Z,9.13
2023-01-02T09:09:35.168Z,9.10
2023-01-02T09:12:05.952Z,9.13
2023-01-02T09:14:34.696Z,9.13
2023-01-02T09:17:03.274Z,9.14
2023-01-02T09:19:42.992Z,9.21
2023-01-02T09:22:11.811Z,9.20
2023-01-02T09:24:40.346Z,9.25
2023-01-02T09:27:10.430Z,9.20
2023-01-02T09:29:53.761Z,9.20
2023-01-02T09:32:22.657Z,9.14
2023-01-02T09:34:54.071Z,9.04
2023-01-02T09:37:45.149Z,9.04
2023-01-02T09:40:23.497Z,9.02
2023-01-02T09:42:55.345Z,9.14
2023-01-02T09:45:25.611Z,8.93
2023-01-02T09:48:04.207Z,8.98
2023-01-02T09:50:33.037Z,8.91
2023-01-02T09:53:02.531Z,8.87
2023-01-02T09:55:45.226Z,9.04
2023-01-02T09:58:24.419Z,9.08
2023-01-02T10:00:56.074Z,9.15
2023-01-02T10:03:48.677Z,9.16
2023-01-02T10:10:27.667Z,9.14
2023-01-02T10:13:05.665Z,9.20
2023-01-02T10:15:38.734Z,9.25
2023-01-02T10:18:32.163Z,9.29
2023-01-02T10:22:00.469Z,9.32
2023-01-02T10:25:02.855Z,9.39
2023-01-02T10:27:41.153Z,9.37
2023-01-02T10:30:17.596Z,9.48
2023-01-02T10:33:05.298Z,9.32
2023-01-02T10:35:37.597Z,9.41
2023-01-02T10:38:07.003Z,9.34
2023-01-02T10:40:45.614Z,9.51
2023-01-02T10:43:15.868Z,9.41
2023-01-02T10:45:45.039Z,9.59
2023-01-02T10:48:15.473Z,9.51
2023-01-02T10:51:02.040Z,9.53
2023-01-02T10:53:33.226Z,9.36
2023-01-02T10:56:07.352Z,9.31
2023-01-02T10:59:09.930Z,9.20
2023-01-02T11:01:51.347Z,9.10
2023-01-02T11:04:32.597Z,9.03
2023-01-02T11:07:02.985Z,8.77
2023-01-02T11:09:33.572Z,8.86
2023-01-02T11:12:22.589Z,8.91
2023-01-02T11:15:12.560Z,8.74
2023-01-02T11:17:45.876Z,8.74
2023-01-02T11:20:27.575Z,8.71
2023-01-02T11:23:03.560Z,8.68
2023-01-02T11:25:39.764Z,8.67
2023-01-02T11:28:17.965Z,8.64
2023-01-02T11:30:48.324Z,8.60
2023-01-02T11:33:28.039Z,8.58
2023-01-02T11:36:07.977Z,8.56
2023-01-02T11:38:45.357Z,8.71
2023-01-02T11:41:50.116Z,8.77
2023-01-02T11:44:23.863Z,8.74
2023-01-02T11:46:54.231Z,8.66
2023-01-02T11:49:29.064Z,8.69
2023-01-02T11:52:04.252Z,8.79
2023-01-02T11:54:41.811Z,8.76
2023-01-02T11:57:22.462Z,8.81
2023-01-02T11:59:54.598Z,8.72
2023-01-02T12:02:32.760Z,8.76
2023-01-02T12:05:01.480Z,8.79
2023-01-02T12:07:44.598Z,8.74
2023-01-02T12:10:28.242Z,8.58
2023-01-02T12:13:15.583Z,8.45
2023-01-02T12:15:56.530Z,8.45
2023-01-02T12:18:46.622Z,8.48
2023-01-02T12:21:22.249Z,8.45
2023-01-02T12:24:02.618Z,8.38
2023-01-02T12:26:44.373Z,8.36
2023-01-02T12:29:46.889Z,8.37
2023-01-02T12:32:48.390Z,8.33
2023-01-02T12:35:41.164Z,8.43
2023-01-02T12:38:11.898Z,8.40
2023-01-02T12:40:53.576Z,8.45
2023-01-02T12:43:51.364Z,8.45
2023-01-02T12:46:36.255Z,8.57
2023-01-02T12:49:25.647Z,8.63
2023-01-02T12:51:59.894Z,8.63
2023-01-02T12:54:52.247Z,8.68
2023-01-02T12:57:30.806Z,8.74
2023-01-02T13:00:17.542Z,8.78
2023-01-02T13:03:18.567Z,8.76
2023-01-02T13:05:59.600Z,8.68
2023-01-02T13:08:40.105Z,8.69
2023-01-02T13:11:10.748Z,8.59
2023-01-02T13:13:40.776Z,8.62
2023-01-02T13:16:24.935Z,8.62
2023-01-02T13:19:08.183Z,8.66
2023-01-02T13:21:45.331Z,8.57
2023-01-02T13:24:20.012Z,8.54
2023-01-02T13:26:48.786Z,8.46
2023-01-02T13:29:28.445Z,8.47
2023-01-02T13:31:57.912Z,8.49
2023-01-02T13:34:29.322Z,8.44
2023-01-02T13:37:06.630Z,8.51
2023-01-02T13:39:50.824Z,8.47
2023-01-02T13:42:43.664Z,8.62
2023-01-02T13:45:17.630Z,8.62
2023-01-02T13:47:53.348Z,8.44
2023-01-02T13:50:30.159Z,8.51
2023-01-02T13:53:08.963Z,8.39
2023-01-02T13:56:00.640Z,8.53
2023-01-02T13:59:08.375Z,8.40
2023-01-02T14:02:20.104Z,8.40
2023-01-02T14:04:49.321Z,8.32
2023-01-02T14:07:56.425Z,8.27
2023-01-02T14:10:46.883Z,8.21
2023-01-02T14:13:38.840Z,8.28
2023-01-02T14:16:38.474Z,8.15
2023-01-02T14:19:21.491Z,8.10
2023-01-02T14:21:54.569Z,8.11
2023-01-02T14:24:30.955Z,8.12
2023-01-02T14:27:02.425Z,8.10
2023-01-02T14:29:32.307Z,8.06
2023-01-02T14:32:08.005Z,8.02
2023-01-02T14:34:45.150Z,8.02
2023-01-02T14:37:26.606Z,7.99
2023-01-02T14:39:55.324Z,7.95
2023-01-02T14:42:49.677Z,7.93
2023-01-02T14:45:23.968Z,7.95
2023-01-02T14:47:55.922Z,8.03
2023-01-02T14:50:31.394Z,7.96
2023-01-02T14:53:18.944Z,8.04
2023-01-02T14:55:51.670Z,7.93
2023-01-02T14:58:30.647Z,7.94
2023-01-02T15:01:04.460Z,7.84
2023-01-02T15:03:44.989Z,7.85
2023-01-02T15:06:21.314Z,7.84
2023-01-02T15:08:52.998Z,7.82
2023-01-02T15:11:41.468Z,7.82
2023-01-02T15:14:17.742Z,7.79
2023-01-02T15:16:54.861Z,7.82
2023-01-02T15:19:28.092Z,7.76
2023-01-02T15:21:58.367Z,7.71
2023-01-02T15:24:33.324Z,7.74
2023-01-02T15:27:24.066Z,7.67
2023-01-02T15:29:56.275Z,7.67
2023-01-02T15:32:27.350Z,7.63
2023-01-02T15:35:10.895Z,7.62
2023-01-02T15:37:46.577Z,7.62
2023-01-02T15:40:24.279Z,7.72
2023-01-02T15:43:16.903Z,7.57
2023-01-02T15:45:49.279Z,7.66
2023-01-02T15:48:23.622Z,7.67
2023-01-02T15:50:54.627Z,7.66
2023-01-02T15:53:29.332Z,7.71
2023-01-02T15:55:59.290Z,7.72
2023-01-02T15:58:32.627Z,7.76
2023-01-02T16:01:13.230Z,7.74
2023-01-02T16:04:01.422Z,7.69
2023-01-02T16:06:44.772Z,7.73
2023-01-02T16:09:22.676Z,7.60
2023-01-02T16:11:54.752Z,7.70
2023-01-02T16:14:33.356Z,7.72
2023-01-02T16:17:25.602Z,7.73
2023-01-02T16:20:01.125Z,7.80
2023-01-02T16:22:42.571Z,7.85
2023-01-02T16:25:18.854Z,7.81
2023-01-02T16:27:54.896Z,7.69
2023-01-02T16:30:33.079Z,7.76
2023-01-02T16:33:03.821Z,7.82
2023-01-02T16:35:34.977Z,7.80
2023-01-02T16:38:07.097Z,7.67
2023-01-02T16:40:59.794Z,7.65
2023-01-02T16:43:34.370Z,7.53
2023-01-02T16:46:10.243Z,7.33
2023-01-02T16:48:42.597Z,7.30
2023-01-02T16:51:12.971Z,7.27
2023-01-02T16:53:45.687Z,7.36
2023-01-02T16:56:16.763Z,7.45
2023-01-02T16:58:45.512Z,7.50
2023-01-02T17:01:19.013Z,7.54
2023-01-02T17:03:49.454Z,7.40
2023-01-02T17:06:21.193Z,7.56
2023-01-02T17:08:55.795Z,7.58
2023-01-02T17:11:58.501Z,7.54
2023-01-02T17:14:29.898Z,7.55
2023-01-02T17:16:58.920Z,7.59
2023-01-02T17:19:27.757Z,7.51
2023-01-02T17:21:56.273Z,7.38
2023-01-02T17:24:24.787Z,7.37
2023-01-02T17:26:54.655Z,7.30
2023-01-02T17:29:23.131Z,7.10
2023-01-02T17:31:51.591Z,6.99
2023-01-02T17:34:20.083Z,6.97
2023-01-02T17:36:48.425Z,6.96
2023-01-02T17:39:17.465Z,7.01
2023-01-02T17:41:45.846Z,7.00
2023-01-02T17:44:17.742Z,6.97
2023-01-02T17:47:30.706Z,7.03
2023-01-02T17:49:35.565Z,6.95
2023-01-02T17:52:05.091Z,6.86
2023-01-02T17:54:33.754Z,6.82
2023-01-02T17:57:02.732Z,6.75
2023-01-02T17:59:33.356Z,6.81
2023-01-02T18:02:02.495Z,6.89
2023-01-02T18:04:31.273Z,6.83
2023-01-02T18:07:02.326Z,6.85
2023-01-02T18:09:32.158Z,6.90
2023-01-02T18:12:01.248Z,6.90
2023-01-02T18:14:51.061Z,6.81
2023-01-02T18:18:37.394Z,6.92
2023-01-02T18:21:56.884Z,7.06
2023-01-02T18:32:59.210Z,7.05
2023-01-02T18:36:08.759Z,6.85
2023-01-02T18:39:31.886Z,6.74
2023-01-02T18:42:22.282Z,6.66
2023-01-02T18:45:16.990Z,6.76
2023-01-02T18:54:58.828Z,6.73
2023-01-02T18:57:35.591Z,6.54
2023-01-02T19:00:21.815Z,6.60
2023-01-02T19:02:57.816Z,6.47
2023-01-02T19:06:26.329Z,6.58
2023-01-02T19:09:43.612Z,6.63
2023-01-02T19:12:43.434Z,6.75
2023-01-02T19:15:42.785Z,6.79
2023-01-02T19:18:35.397Z,6.87
2023-01-02T19:21:15.559Z,6.86
2023-01-02T19:23:57.999Z,6.98
2023-01-02T19:26:53.371Z,6.86
2023-01-02T19:29:48.111Z,7.00
2023-01-02T19:32:48.149Z,6.98
2023-01-02T19:35:56.489Z,7.04
2023-01-02T19:38:33.907Z,7.01
2023-01-02T19:41:03.249Z,7.03
2023-01-02T19:43:35.599Z,6.91
2023-01-02T19:46:07.369Z,6.93
2023-01-02T19:48:38.139Z,7.07
2023-01-02T19:51:07.108Z,6.96
2023-01-02T19:53:35.734Z,6.94
2023-01-02T19:56:04.347Z,7.01
2023-01-02T19:58:33.178Z,6.98
2023-01-02T20:01:03.967Z,7.03
2023-01-02T20:03:34.268Z,7.01
2023-01-02T20:06:03.485Z,6.95
2023-01-02T20:08:35.613Z,7.00
2023-01-02T20:11:04.627Z,7.01
2023-01-02T20:13:35.575Z,6.87
2023-01-02T20:16:04.533Z,6.73
2023-01-02T20:18:34.934Z,6.68
2023-01-02T20:21:03.831Z,6.40
2023-01-02T20:23:32.636Z,6.34
2023-01-02T20:26:01.619Z,6.21
2023-01-02T20:28:31.745Z,6.08
2023-01-02T20:31:00.898Z,6.15
2023-01-02T20:34:00.603Z,6.03
2023-01-02T20:36:21.012Z,6.11
2023-01-02T20:38:49.792Z,6.00
2023-01-02T20:41:18.597Z,5.94
2023-01-02T20:43:47.293Z,6.03
2023-01-02T20:46:16.050Z,5.98
2023-01-02T20:48:44.892Z,6.02
2023-01-02T20:51:15.414Z,6.16
2023-01-02T20:53:45.381Z,6.19
2023-01-02T20:56:13.783Z,6.33
2023-01-02T20:58:42.143Z,6.32
2023-01-02T21:01:10.879Z,6.31
2023-01-02T21:03:39.347Z,6.35
2023-01-02T21:06:08.303Z,6.42
2023-01-02T21:08:36.861Z,6.40
2023-01-02T21:11:07.701Z,6.48
2023-01-02T21:13:36.349Z,6.52
2023-01-02T21:16:05.127Z,6.51
2023-01-02T21:18:35.889Z,6.56
2023-01-02T21:21:06.770Z,6.53
2023-01-02T21:23:37.064Z,6.56
2023-01-02T21:26:08.129Z,6.48
2023-01-02T21:28:37.674Z,6.57
2023-01-02T21:31:06.558Z,6.52
2023-01-02T21:33:35.055Z,6.56
2023-01-02T21:36:08.500Z,6.60
2023-01-02T21:38:37.256Z,6.66
2023-01-02T21:41:24.746Z,6.69
2023-01-02T21:43:53.331Z,6.76
2023-01-02T21:46:21.751Z,6.70
2023-01-02T21:48:50.279Z,6.73
2023-01-02T21:51:18.821Z,6.69
2023-01-02T21:53:47.510Z,6.65
2023-01-02T21:56:17.325Z,6.58
2023-01-02T21:58:45.848Z,6.57
2023-01-02T22:01:14.280Z,6.51
2023-01-02T22:03:42.899Z,6.44
2023-01-02T22:06:11.348Z,6.37
2023-01-02T22:08:39.833Z,6.39
2023-01-02T22:11:25.885Z,6.41
2023-01-02T22:13:55.677Z,6.37
2023-01-02T22:16:24.676Z,6.32
2023-01-02T22:18:53.156Z,6.17
2023-01-02T22:21:22.000Z,6.15
2023-01-02T22:23:50.496Z,6.23
2023-01-02T22:26:19.095Z,6.22
2023-01-02T22:28:47.552Z,6.13
2023-01-02T22:31:17.417Z,6.19
2023-01-02T22:33:45.975Z,6.12
2023-01-02T22:36:16.376Z,6.14
2023-01-02T22:39:17.699Z,5.97
2023-01-02T22:41:35.080Z,5.93
2023-01-02T22:44:05.631Z,5.87
2023-01-02T22:46:39.973Z,5.90
2023-01-02T22:49:13.004Z,5.89
2023-01-02T22:52:05.885Z,5.85
2023-01-02T22:54:30.297Z,5.85
2023-01-02T22:56:58.767Z,5.86
2023-01-02T22:59:27.246Z,5.78
2023-01-02T23:01:57.316Z,5.79
2023-01-02T23:04:26.563Z,5.74
2023-01-02T23:09:43.720Z,5.74
2023-01-02T23:12:12.795Z,5.81
2023-01-02T23:14:41.331Z,5.87
2023-01-02T23:17:29.951Z,5.88
2023-01-02T23:19:58.883Z,5.88
2023-01-02T23:22:27.728Z,5.80
2023-01-02T23:24:56.167Z,5.74
2023-01-02T23:27:24.576Z,5.64
2023-01-02T23:29:53.019Z,5.56
2023-01-02T23:32:22.803Z,5.51
2023-01-02T23:34:51.300Z,5.45
2023-01-02T23:37:19.691Z,5.47
2023-01-02T23:39:48.184Z,5.47
2023-01-02T23:42:16.731Z,5.42
2023-01-02T23:44:45.245Z,5.31
2023-01-02T23:47:18.855Z,5.30
2023-01-02T23:49:49.017Z,5.35
2023-01-02T23:52:18.405Z,5.24
2023-01-02T23:54:46.831Z,5.20
2023-01-02T23:57:15.316Z,5.32
2023-01-02T23:59:43.754Z,5.30
